< < Back
Terminal Aerodrome Forecast


Current Version              Previous Versions:   1  2  3  4  5  6  7  8  9  

Terminal Aerodrome Forecast

187
FTUS42 KFFC 232100 AAB
TAFCSG
TAF AMD
KCSG 232136Z 2322/2418 08008KT P6SM SCT045
     FM241400 06010G16KT P6SM BKN030
     FM241600 06010G18KT P6SM BKN040=

Latest METAR

156
SAUS70 KWBC 232200
MTRCSG
METAR KCSG 232151Z 09012G15KT 10SM CLR 26/14 A3011 RMK AO2 SLP194
T02560139


USA.gov is the U.S. government's official web portal to all federal, state and local government web resources and services.